Time;durP1;ratioP1;P1;durP2;ratioP2;P2;SDS_P1;SDS_P2;PMS_P1;PMS_P2;Temp;Humidity;BMP_temperature;BMP_pressure;BME280_temperature;BME280_humidity;BME280_pressure;Samples;Min_cycle;Max_cycle;Signal;HPM_P1;HPM_P2
2022/10/28 00:01:16;;;;;;;;;11.00;11.00;;;;;19.09;68.78;101315.75;4843806;29;45414;-79
2022/10/28 00:03:44;;;;;;;;;11.75;10.50;;;;;19.08;68.76;101316.75;4846182;29;47064;-79
2022/10/28 00:06:19;;;;;;;;;13.00;10.50;;;;;19.14;68.47;101324.47;4844443;29;45243;-79
2022/10/28 00:08:44;;;;;;;;;12.75;11.25;;;;;19.13;68.57;101316.44;4845370;29;47450;-79
2022/10/28 00:11:15;;;;;;;;;14.50;10.50;;;;;19.10;68.84;101308.53;4846501;29;45513;-79
2022/10/28 00:13:42;;;;;;;;;13.00;10.25;;;;;19.12;68.73;101320.13;4854895;29;45400;-79
2022/10/28 00:16:12;;;;;;;;;10.25;10.25;;;;;19.10;68.91;101317.50;4845091;29;46157;-79
2022/10/28 00:18:38;;;;;;;;;10.50;8.75;;;;;19.10;68.90;101322.94;4846191;29;45293;-79
2022/10/28 00:21:10;;;;;;;;;9.75;8.00;;;;;19.03;69.10;101314.31;4845782;29;45522;-79
2022/10/28 00:23:35;;;;;;;;;8.25;7.00;;;;;19.05;69.37;101311.50;4845524;29;45358;-79
2022/10/28 00:26:18;;;;;;;;;12.50;8.50;;;;;18.96;68.95;101309.31;4844845;29;45360;-79
2022/10/28 00:28:48;;;;;;;;;8.50;7.25;;;;;19.04;68.82;101325.97;4840209;29;46339;-79
2022/10/28 00:31:16;;;;;;;;;9.50;9.00;;;;;18.98;68.87;101307.44;4845265;29;45598;-79
2022/10/28 00:33:41;;;;;;;;;10.00;7.00;;;;;19.03;68.95;101326.97;4853501;29;45296;-79
2022/10/28 00:36:13;;;;;;;;;12.00;9.50;;;;;18.98;68.98;101320.97;4864434;29;45520;-79
2022/10/28 00:38:40;;;;;;;;;10.25;10.25;;;;;19.00;69.15;101322.59;4853730;29;48395;-79
2022/10/28 00:41:05;;;;;;;;;6.25;6.00;;;;;18.96;69.26;101321.03;4862276;29;45481;-79
2022/10/28 00:43:38;;;;;;;;;10.00;7.75;;;;;18.99;68.84;101323.53;4848850;29;45336;-79
2022/10/28 00:46:12;;;;;;;;;9.50;9.50;;;;;18.94;68.83;101314.81;4861820;29;45487;-79
2022/10/28 00:48:40;;;;;;;;;10.00;8.00;;;;;18.98;69.08;101327.22;4857322;29;45429;-79
2022/10/28 00:51:07;;;;;;;;;10.50;7.00;;;;;18.97;69.29;101321.91;4864611;29;45559;-79
2022/10/28 00:53:33;;;;;;;;;12.25;10.75;;;;;18.93;68.86;101314.91;4847753;29;45294;-79
2022/10/28 00:56:01;;;;;;;;;9.75;8.25;;;;;18.86;69.50;101307.19;4862388;29;45768;-79
2022/10/28 00:58:28;;;;;;;;;11.25;11.25;;;;;18.94;69.47;101316.66;4846392;29;47019;-79
2022/10/28 01:00:53;;;;;;;;;10.00;8.25;;;;;18.91;69.33;101311.44;4836675;29;45647;-79
2022/10/28 01:03:19;;;;;;;;;9.50;8.25;;;;;18.87;69.17;101297.22;4848598;29;45455;-79
2022/10/28 01:05:46;;;;;;;;;13.00;11.25;;;;;18.91;69.33;101304.22;4847141;29;45554;-79
2022/10/28 01:08:13;;;;;;;;;12.75;10.75;;;;;18.85;69.59;101302.72;4843078;29;47531;-79
2022/10/28 01:11:01;;;;;;;;;8.25;8.25;;;;;18.86;69.35;101312.59;4833309;29;45422;-79
2022/10/28 01:13:52;;;;;;;;;2.50;2.00;;;;;18.85;69.31;101313.53;4852157;29;45303;-79
2022/10/28 01:16:36;;;;;;;;;9.00;8.00;;;;;18.84;69.46;101313.63;4845802;29;45557;-79
2022/10/28 01:19:37;;;;;;;;;7.00;7.00;;;;;18.83;69.35;101307.34;4830664;29;45355;-79
2022/10/28 01:22:49;;;;;;;;;9.50;9.25;;;;;18.83;69.68;101307.34;4834902;29;45325;-79
2022/10/28 01:25:56;;;;;;;;;6.50;5.00;;;;;18.83;69.63;101306.47;4816780;29;45502;-79
2022/10/28 01:28:50;;;;;;;;;6.50;5.50;;;;;18.84;69.43;101305.50;4833483;29;45633;-79
2022/10/28 01:31:18;;;;;;;;;13.50;8.25;;;;;18.84;69.57;101298.28;4828707;29;46292;-79
2022/10/28 01:33:56;;;;;;;;;6.25;6.25;;;;;18.83;69.48;101299.22;4845434;29;46365;-79
2022/10/28 01:36:36;;;;;;;;;7.25;6.50;;;;;18.83;69.41;101304.66;4830195;29;45364;-79
2022/10/28 01:39:21;;;;;;;;;8.75;6.75;;;;;18.82;69.42;101299.28;4830600;29;45364;-79
2022/10/28 01:42:06;;;;;;;;;7.50;7.50;;;;;18.80;69.54;101295.81;4835985;29;45517;-79
2022/10/28 01:44:59;;;;;;;;;5.00;5.00;;;;;18.83;69.17;101296.53;4833239;29;45575;-79
2022/10/28 01:47:33;;;;;;;;;8.00;7.50;;;;;18.74;69.59;101275.38;4843634;29;45365;-79
2022/10/28 01:50:17;;;;;;;;;9.25;7.75;;;;;18.82;69.38;101288.47;4830253;29;45295;-79
2022/10/28 01:52:45;;;;;;;;;6.25;5.50;;;;;18.80;69.48;101283.16;4836933;29;45574;-79
2022/10/28 01:55:20;;;;;;;;;8.75;6.75;;;;;18.80;69.54;101283.16;4848548;29;45315;-79
2022/10/28 01:57:49;;;;;;;;;8.50;7.00;;;;;18.76;69.44;101278.00;4848259;29;45327;-79
2022/10/28 02:00:15;;;;;;;;;5.50;5.00;;;;;18.72;69.56;101271.91;4836658;29;45221;-79
2022/10/28 02:02:41;;;;;;;;;9.00;7.50;;;;;18.76;69.69;101283.41;4834562;29;45265;-79
2022/10/28 02:05:41;;;;;;;;;7.00;6.25;;;;;18.77;69.36;101280.63;4836909;29;45258;-79
2022/10/28 02:08:44;;;;;;;;;7.50;5.75;;;;;18.75;69.26;101287.97;4837775;29;45355;-79
2022/10/28 02:11:40;;;;;;;;;7.75;7.75;;;;;18.75;69.35;101277.13;4834439;29;45627;-79
2022/10/28 02:14:20;;;;;;;;;9.50;7.00;;;;;18.75;69.62;101281.69;4839559;29;46394;-79
2022/10/28 02:16:57;;;;;;;;;10.25;9.00;;;;;18.73;69.60;101280.88;4833447;29;45227;-79
2022/10/28 02:20:06;;;;;;;;;7.00;5.75;;;;;18.72;69.69;101280.00;4829927;29;45521;-79
2022/10/28 02:22:44;;;;;;;;;11.25;9.50;;;;;18.66;69.37;101270.44;4823163;29;45581;-79
2022/10/28 02:25:19;;;;;;;;;10.00;8.25;;;;;18.69;69.58;101266.66;4843139;29;46361;-79
2022/10/28 02:27:56;;;;;;;;;10.00;8.50;;;;;18.68;69.47;101264.94;4836551;29;45214;-79
2022/10/28 02:30:33;;;;;;;;;10.50;9.00;;;;;18.65;69.81;101265.97;4829594;29;45269;-79
2022/10/28 02:33:02;;;;;;;;;6.75;6.25;;;;;18.64;69.69;101269.66;4836894;29;45553;-79
2022/10/28 02:35:36;;;;;;;;;9.50;8.75;;;;;18.64;69.70;101269.66;4847849;29;46157;-78
2022/10/28 02:38:08;;;;;;;;;11.00;8.25;;;;;18.61;69.66;101260.84;4834436;29;45435;-79
2022/10/28 02:40:36;;;;;;;;;7.00;7.00;;;;;18.57;69.56;101268.25;4840201;29;45421;-78
2022/10/28 02:43:05;;;;;;;;;14.50;8.50;;;;;18.62;70.22;101266.16;4841620;29;45601;-79
2022/10/28 02:45:38;;;;;;;;;7.00;6.00;;;;;18.56;69.86;101261.13;4838949;29;46350;-79
2022/10/28 02:48:10;;;;;;;;;12.00;9.25;;;;;18.59;69.40;101257.34;4834050;29;45413;-78
2022/10/28 02:50:38;;;;;;;;;11.75;7.50;;;;;18.58;69.81;101263.75;4829093;29;45347;-78
2022/10/28 02:53:15;;;;;;;;;10.75;7.75;;;;;18.50;69.55;101254.22;4836334;29;45270;-79
2022/10/28 02:55:44;;;;;;;;;9.50;8.25;;;;;18.56;69.99;101271.03;4843785;29;46256;-79
2022/10/28 02:58:10;;;;;;;;;7.00;7.00;;;;;18.55;69.41;101263.91;4848446;29;45381;-79
2022/10/28 03:00:35;;;;;;;;;7.00;5.75;;;;;18.54;69.67;101267.56;4848987;29;45371;-79
2022/10/28 03:03:01;;;;;;;;;6.00;6.00;;;;;18.50;69.45;101264.16;4846734;29;45393;-79
2022/10/28 03:05:26;;;;;;;;;5.75;5.75;;;;;18.47;69.70;101261.63;4848158;29;45602;-79
2022/10/28 03:07:52;;;;;;;;;8.25;7.50;;;;;18.48;69.64;101266.09;4846465;29;45472;-79
2022/10/28 03:10:17;;;;;;;;;9.50;7.00;;;;;18.49;69.94;101260.59;4846616;29;45321;-79
2022/10/28 03:12:42;;;;;;;;;8.25;7.25;;;;;18.49;69.42;101254.31;4838653;29;45251;-79
2022/10/28 03:15:08;;;;;;;;;9.25;9.25;;;;;18.48;69.68;101241.78;4845499;29;47346;-78
2022/10/28 03:17:33;;;;;;;;;9.00;8.50;;;;;18.45;69.90;101237.41;4846815;29;45245;-79
2022/10/28 03:19:59;;;;;;;;;8.50;8.50;;;;;18.40;69.46;101225.97;4847438;29;45466;-78
2022/10/28 03:22:24;;;;;;;;;9.50;6.00;;;;;18.47;69.58;101246.28;4846238;29;45498;-78
2022/10/28 03:24:49;;;;;;;;;9.25;8.00;;;;;18.46;69.64;101243.66;4847023;29;45261;-79
2022/10/28 03:27:15;;;;;;;;;10.75;5.75;;;;;18.45;69.64;101237.41;4847050;29;45300;-78
2022/10/28 03:29:40;;;;;;;;;9.75;6.00;;;;;18.46;69.84;101238.25;4846156;29;45343;-79
2022/10/28 03:32:05;;;;;;;;;6.25;6.00;;;;;18.42;69.43;101234.88;4845725;29;50115;-79
2022/10/28 03:34:30;;;;;;;;;9.50;8.50;;;;;18.42;69.55;101239.41;4848118;29;46220;-79
2022/10/28 03:36:56;;;;;;;;;8.75;6.50;;;;;18.37;69.78;101236.97;4856954;29;52760;-79
2022/10/28 03:39:21;;;;;;;;;10.25;6.00;;;;;18.36;69.93;101226.22;4846678;29;45565;-79
2022/10/28 03:41:46;;;;;;;;;5.50;4.75;;;;;18.38;69.53;101233.31;4842467;29;48758;-79
2022/10/28 03:44:12;;;;;;;;;8.50;6.00;;;;;18.35;69.98;101224.50;4845194;29;47534;-79
2022/10/28 03:46:37;;;;;;;;;7.50;7.00;;;;;18.28;69.48;101213.19;4846253;29;49570;-79
2022/10/28 03:49:03;;;;;;;;;10.75;9.25;;;;;18.32;69.69;101222.84;4842882;29;45200;-78
2022/10/28 03:51:28;;;;;;;;;8.50;8.50;;;;;18.33;69.80;101224.59;4830134;29;45323;-79
2022/10/28 03:53:53;;;;;;;;;9.75;8.25;;;;;18.29;69.98;101220.31;4840445;29;46294;-78
2022/10/28 03:56:19;;;;;;;;;7.25;5.75;;;;;18.29;69.80;101214.91;4850885;29;45297;-78
2022/10/28 03:58:47;;;;;;;;;7.00;6.25;;;;;18.33;69.67;101227.31;4854479;29;45378;-78
2022/10/28 04:01:12;;;;;;;;;8.00;6.25;;;;;18.24;70.02;101217.00;4827977;29;45485;-78
2022/10/28 04:03:38;;;;;;;;;9.50;8.25;;;;;18.28;69.58;101229.41;4838771;29;46135;-78
2022/10/28 04:06:04;;;;;;;;;8.25;8.25;;;;;18.28;70.05;101235.66;4840425;29;45318;-78
2022/10/28 04:08:29;;;;;;;;;10.50;7.75;;;;;18.20;69.46;101223.56;4838506;29;45319;-79
2022/10/28 04:10:54;;;;;;;;;11.75;9.50;;;;;18.27;70.00;101228.50;4832641;29;45529;-78
2022/10/28 04:13:20;;;;;;;;;11.25;8.50;;;;;18.27;69.60;101225.81;4842369;29;45451;-79
2022/10/28 04:15:45;;;;;;;;;9.00;6.00;;;;;18.26;69.82;101223.19;4827877;29;45225;-79
2022/10/28 04:18:11;;;;;;;;;10.25;7.50;;;;;18.25;69.99;101226.88;4832294;29;45480;-79
2022/10/28 04:20:36;;;;;;;;;10.75;8.75;;;;;18.20;69.96;101221.72;4845232;29;46669;-79
2022/10/28 04:23:02;;;;;;;;;7.50;6.75;;;;;18.23;70.18;101221.53;4844777;29;45402;-78
2022/10/28 04:25:27;;;;;;;;;7.25;6.50;;;;;18.25;69.77;101230.44;4836100;29;45832;-78
2022/10/28 04:27:53;;;;;;;;;10.50;7.00;;;;;18.26;70.04;101242.09;4836370;29;45310;-79
2022/10/28 04:30:19;;;;;;;;;10.50;6.00;;;;;18.24;69.64;101225.09;4830052;29;45457;-79
2022/10/28 04:32:44;;;;;;;;;9.50;7.75;;;;;18.26;69.77;101229.47;4837005;29;45988;-79
2022/10/28 04:35:11;;;;;;;;;7.25;5.00;;;;;18.26;70.05;101229.47;4842643;29;45256;-79
2022/10/28 04:37:37;;;;;;;;;10.00;8.00;;;;;18.27;70.10;101233.03;4843323;29;45381;-79
2022/10/28 04:40:03;;;;;;;;;7.25;6.25;;;;;18.28;69.86;101229.41;4841680;29;45490;-79
2022/10/28 04:42:29;;;;;;;;;7.00;6.75;;;;;18.20;70.02;101215.44;4844444;29;46078;-79
2022/10/28 04:44:54;;;;;;;;;5.75;5.50;;;;;18.15;69.89;101208.47;4840165;29;45300;-79
2022/10/28 04:47:19;;;;;;;;;11.50;8.50;;;;;18.29;69.60;101220.31;4835656;29;45275;-79
2022/10/28 04:49:45;;;;;;;;;8.00;8.00;;;;;18.31;69.68;101224.69;4837348;29;45616;-79
2022/10/28 04:52:10;;;;;;;;;7.50;7.50;;;;;18.27;70.06;101212.28;4832274;29;45278;-79
2022/10/28 04:54:35;;;;;;;;;6.00;5.50;;;;;18.33;69.94;101216.50;4841682;29;45249;-79
2022/10/28 04:57:01;;;;;;;;;8.00;8.00;;;;;18.24;69.99;101200.78;4846772;29;45224;-79
2022/10/28 04:59:26;;;;;;;;;10.50;6.50;;;;;18.27;69.66;101214.13;4846726;29;45482;-79
2022/10/28 05:01:52;;;;;;;;;10.00;9.50;;;;;18.33;69.96;101225.47;4830393;29;45451;-79
2022/10/28 05:04:17;;;;;;;;;12.25;7.25;;;;;18.30;69.56;101224.75;4842671;29;45288;-79
2022/10/28 05:06:42;;;;;;;;;11.25;9.25;;;;;18.27;69.50;101216.84;4830586;29;49490;-78
2022/10/28 05:09:08;;;;;;;;;9.25;8.25;;;;;18.32;70.08;101217.44;4839435;29;45362;-79
2022/10/28 05:11:33;;;;;;;;;9.25;8.25;;;;;18.30;69.79;101220.22;4846618;29;46568;-79
2022/10/28 05:13:58;;;;;;;;;9.50;8.50;;;;;18.28;69.58;101205.94;4853242;29;45314;-79
2022/10/28 05:16:23;;;;;;;;;11.50;9.50;;;;;18.31;69.73;101219.28;4848606;29;45271;-79
2022/10/28 05:18:49;;;;;;;;;9.75;9.75;;;;;18.35;69.58;101224.50;4832137;29;45321;-78
2022/10/28 05:21:14;;;;;;;;;4.75;4.75;;;;;18.29;69.45;101214.91;4829435;29;47210;-79
2022/10/28 05:23:40;;;;;;;;;10.00;8.50;;;;;18.29;69.39;101223.91;4843057;29;45442;-79
2022/10/28 05:26:05;;;;;;;;;11.75;8.25;;;;;18.28;69.64;101219.44;4837622;29;45348;-79
2022/10/28 05:28:30;;;;;;;;;11.50;9.75;;;;;18.28;69.49;101224.84;4833680;29;45337;-78
2022/10/28 05:30:56;;;;;;;;;10.00;6.50;;;;;18.29;69.58;101218.50;4842499;29;46069;-79
2022/10/28 05:33:21;;;;;;;;;12.50;8.50;;;;;18.25;69.51;101210.66;4844561;29;45268;-79
2022/10/28 05:35:47;;;;;;;;;10.00;8.75;;;;;18.31;69.55;101218.41;4820474;29;45290;-79
2022/10/28 05:38:12;;;;;;;;;11.25;8.00;;;;;18.25;69.47;101213.34;4845070;29;45997;-79
2022/10/28 05:40:38;;;;;;;;;6.50;6.50;;;;;18.30;69.29;101224.75;4842426;29;45312;-79
2022/10/28 05:43:03;;;;;;;;;8.50;8.50;;;;;18.28;69.06;101218.59;4857103;29;45292;-80
2022/10/28 05:45:29;;;;;;;;;13.25;9.50;;;;;18.31;69.64;101223.81;4845748;29;45734;-79
2022/10/28 05:47:55;;;;;;;;;9.25;9.00;;;;;18.31;69.21;101219.28;4848135;29;45253;-78
2022/10/28 05:50:20;;;;;;;;;8.50;7.00;;;;;18.32;69.13;101217.44;4848033;29;46868;-78
2022/10/28 05:52:51;;;;;;;;;9.50;6.50;;;;;18.33;69.42;101221.91;4848224;29;45353;-79
2022/10/28 05:55:18;;;;;;;;;10.75;9.00;;;;;18.32;69.42;101222.84;4846357;29;45472;-78
2022/10/28 05:57:48;;;;;;;;;10.75;8.75;;;;;18.30;68.81;101227.47;4852931;29;45649;-78
2022/10/28 06:00:15;;;;;;;;;11.00;8.50;;;;;18.25;69.68;101210.66;4853815;29;46539;-79
2022/10/28 06:02:41;;;;;;;;;10.25;7.00;;;;;18.33;69.45;101227.31;4829589;29;45329;-79
2022/10/28 06:05:08;;;;;;;;;6.75;6.00;;;;;18.28;69.29;101222.16;4840548;29;45697;-79
2022/10/28 06:07:33;;;;;;;;;11.00;8.50;;;;;18.31;69.30;101229.22;4842624;29;45199;-78
2022/10/28 06:09:59;;;;;;;;;11.25;10.25;;;;;18.31;69.14;101237.34;4846312;29;45576;-78
2022/10/28 06:12:24;;;;;;;;;8.50;6.50;;;;;18.27;69.13;101231.22;4841013;29;45395;-78
2022/10/28 06:14:50;;;;;;;;;6.25;6.25;;;;;18.29;69.22;101231.13;4845577;29;45495;-78
2022/10/28 06:17:15;;;;;;;;;9.00;7.00;;;;;18.23;69.00;101229.66;4846857;29;45420;-78
2022/10/28 06:19:40;;;;;;;;;9.50;7.75;;;;;18.27;68.95;101239.31;4842323;29;46099;-79
2022/10/28 06:22:06;;;;;;;;;8.50;7.00;;;;;18.25;69.42;101233.13;4830947;29;45386;-78
2022/10/28 06:24:31;;;;;;;;;14.75;9.50;;;;;18.25;69.32;101240.38;4833411;29;45309;-76
2022/10/28 06:26:56;;;;;;;;;13.00;9.75;;;;;18.26;69.27;101240.28;4841930;29;45350;-77
2022/10/28 06:29:22;;;;;;;;;10.50;10.50;;;;;18.26;68.84;101239.41;4843647;29;49826;-76
2022/10/28 06:31:47;;;;;;;;;11.00;6.75;;;;;18.25;69.40;101245.78;4844137;29;46878;-76
2022/10/28 06:34:12;;;;;;;;;10.75;10.25;;;;;18.26;69.30;101247.50;4849047;29;45783;-76
2022/10/28 06:36:38;;;;;;;;;9.50;6.75;;;;;18.26;69.09;101259.19;4838148;29;46050;-76
2022/10/28 06:39:04;;;;;;;;;8.50;8.00;;;;;18.23;69.11;101247.69;4831529;29;45807;-76
2022/10/28 06:41:30;;;;;;;;;11.25;8.50;;;;;18.22;68.75;101257.63;4839474;29;45399;-76
2022/10/28 06:43:55;;;;;;;;;13.50;8.50;;;;;18.24;69.33;101260.25;4846316;29;45345;-76
2022/10/28 06:46:21;;;;;;;;;10.00;10.00;;;;;18.22;69.22;101256.75;4837469;29;45298;-76
2022/10/28 06:48:46;;;;;;;;;9.25;7.50;;;;;18.21;69.05;101269.41;4842800;29;45865;-75
2022/10/28 06:51:11;;;;;;;;;11.25;8.00;;;;;18.18;68.96;101266.88;4842344;29;45404;-76
2022/10/28 06:53:37;;;;;;;;;13.00;11.25;;;;;18.17;69.09;101269.66;4840013;29;45384;-76
2022/10/28 06:56:03;;;;;;;;;13.75;10.75;;;;;18.14;69.04;101268.88;4844654;29;45566;-76
2022/10/28 06:58:28;;;;;;;;;5.25;5.25;;;;;18.20;69.21;101289.25;4846609;29;46099;-76
2022/10/28 07:00:54;;;;;;;;;8.75;8.75;;;;;18.22;69.17;101286.47;4835671;29;45517;-76
2022/10/28 07:03:20;;;;;;;;;11.50;9.50;;;;;18.21;69.05;101292.81;4846415;29;45478;-76
2022/10/28 07:05:48;;;;;;;;;11.50;9.50;;;;;18.19;69.04;101283.94;4844562;29;45381;-75
2022/10/28 07:08:13;;;;;;;;;11.00;10.25;;;;;18.20;68.95;101291.09;4841640;29;47319;-76
2022/10/28 07:10:39;;;;;;;;;11.75;9.50;;;;;18.14;68.77;101298.59;4839290;29;47217;-76
2022/10/28 07:13:05;;;;;;;;;10.00;9.00;;;;;18.20;68.95;101302.78;4847708;29;45508;-76
2022/10/28 07:15:30;;;;;;;;;13.50;9.00;;;;;18.19;69.00;101300.16;4844861;29;45462;-76
2022/10/28 07:17:57;;;;;;;;;6.75;6.75;;;;;18.21;69.04;101312.63;4838781;29;45674;-76
2022/10/28 07:20:24;;;;;;;;;8.25;7.00;;;;;18.18;68.50;101303.84;4843397;29;46535;-76
2022/10/28 07:23:00;;;;;;;;;8.75;8.50;;;;;18.12;68.79;101288.81;4845062;29;45335;-76
2022/10/28 07:25:27;;;;;;;;;8.00;7.50;;;;;18.21;68.69;101314.44;4835624;29;45649;-76
2022/10/28 07:27:53;;;;;;;;;10.25;9.25;;;;;18.20;68.97;101312.72;4844737;29;47429;-75
2022/10/28 07:30:18;;;;;;;;;12.50;10.25;;;;;18.18;68.73;101318.22;4833780;29;45459;-75
2022/10/28 07:32:43;;;;;;;;;8.75;7.75;;;;;18.20;68.78;101320.81;4828718;29;45256;-76
2022/10/28 07:35:09;;;;;;;;;13.25;10.00;;;;;18.21;68.77;101318.03;4831157;29;45318;-76
2022/10/28 07:37:34;;;;;;;;;13.00;9.25;;;;;18.18;68.76;101322.75;4838176;29;45551;-76
2022/10/28 07:39:59;;;;;;;;;11.75;9.75;;;;;18.14;68.72;101319.31;4834226;29;45467;-75
2022/10/28 07:42:24;;;;;;;;;11.25;8.75;;;;;18.25;68.60;101332.25;4843711;29;45461;-75
2022/10/28 07:44:50;;;;;;;;;10.00;9.25;;;;;18.21;68.34;101331.56;4840684;29;45469;-75
2022/10/28 07:47:16;;;;;;;;;6.25;5.50;;;;;18.21;68.68;101330.66;4840014;29;46531;-76
2022/10/28 07:49:42;;;;;;;;;9.25;9.25;;;;;18.27;68.55;101338.44;4844877;29;45358;-75
2022/10/28 07:52:08;;;;;;;;;8.25;5.75;;;;;18.26;68.72;101344.78;4841417;29;45342;-76
2022/10/28 07:54:33;;;;;;;;;8.25;7.75;;;;;18.25;67.90;101340.34;4842344;29;45444;-77
2022/10/28 07:56:58;;;;;;;;;11.25;8.50;;;;;18.31;68.55;101353.53;4854280;29;47186;-77
2022/10/28 07:59:24;;;;;;;;;12.25;7.75;;;;;18.31;68.10;101348.13;4834761;29;45229;-77
2022/10/28 08:01:49;;;;;;;;;8.25;8.25;;;;;18.36;68.54;101355.97;4836462;29;45373;-77
2022/10/28 08:04:15;;;;;;;;;11.75;10.75;;;;;18.33;68.15;101349.78;4842931;29;45216;-76
2022/10/28 08:06:41;;;;;;;;;14.00;9.50;;;;;18.40;68.50;101354.84;4847490;29;46275;-79
2022/10/28 08:09:06;;;;;;;;;9.50;8.50;;;;;18.41;68.42;101367.38;4849358;29;45281;-80
2022/10/28 08:11:31;;;;;;;;;9.50;9.00;;;;;18.45;68.00;101382.50;4848970;29;45579;-77
2022/10/28 08:13:57;;;;;;;;;10.00;10.00;;;;;18.49;68.07;101379.56;4858042;29;45393;-77
2022/10/28 08:16:22;;;;;;;;;11.75;10.50;;;;;18.48;68.64;101366.13;4849298;29;46090;-77
2022/10/28 08:18:48;;;;;;;;;8.75;8.50;;;;;18.51;67.76;101369.50;4849859;29;45273;-77
2022/10/28 08:21:14;;;;;;;;;11.25;9.00;;;;;18.58;67.37;101378.16;4844477;29;45550;-77
2022/10/28 08:23:40;;;;;;;;;6.75;6.75;;;;;18.61;67.93;101383.41;4846199;29;45462;-77
2022/10/28 08:26:06;;;;;;;;;10.75;6.75;;;;;18.64;67.34;101393.16;4843556;29;45990;-77
2022/10/28 08:28:31;;;;;;;;;10.50;8.25;;;;;18.64;67.19;101385.03;4848827;29;45317;-77
2022/10/28 08:31:02;;;;;;;;;6.75;6.25;;;;;18.68;67.43;101392.91;4847536;29;45388;-77
2022/10/28 08:33:27;;;;;;;;;12.25;8.25;;;;;18.72;67.17;101407.13;4831479;29;45266;-77
2022/10/28 08:35:53;;;;;;;;;15.25;9.50;;;;;18.75;67.29;101406.09;4847056;29;45310;-77
2022/10/28 08:38:18;;;;;;;;;14.00;8.50;;;;;18.77;67.22;101405.03;4845170;29;45573;-77
2022/10/28 08:40:55;;;;;;;;;11.50;10.00;;;;;18.80;67.16;101409.41;4850782;29;45318;-77
2022/10/28 08:43:39;;;;;;;;;12.25;8.00;;;;;18.81;67.28;101393.09;4837329;29;45445;-77
2022/10/28 08:46:16;;;;;;;;;9.75;8.25;;;;;18.83;67.13;101401.16;4836100;29;46442;-77
2022/10/28 08:48:42;;;;;;;;;6.75;6.75;;;;;18.84;66.83;101400.19;4843754;29;45513;-77
2022/10/28 08:51:16;;;;;;;;;8.25;7.00;;;;;18.87;67.16;101417.09;4860296;29;45253;-77
2022/10/28 08:53:59;;;;;;;;;8.00;6.75;;;;;18.83;66.52;101403.84;4830012;29;46075;-77
2022/10/28 08:56:32;;;;;;;;;11.00;9.00;;;;;18.93;66.43;101409.59;4847901;29;47911;-77
2022/10/28 08:58:59;;;;;;;;;6.75;5.00;;;;;18.93;66.52;101410.50;4842639;29;45649;-77
2022/10/28 09:01:31;;;;;;;;;6.00;6.00;;;;;18.98;66.44;101423.75;4850911;29;45422;-79
2022/10/28 09:04:01;;;;;;;;;10.75;9.25;;;;;19.00;66.01;101432.66;4854723;29;45243;-79
2022/10/28 09:06:29;;;;;;;;;7.50;6.25;;;;;19.02;66.01;101441.53;4842640;29;47181;-77
2022/10/28 09:08:56;;;;;;;;;9.00;6.25;;;;;19.00;66.15;101438.06;4842058;29;49335;-77
2022/10/28 09:11:42;;;;;;;;;0.00;0.00;;;;;19.11;65.63;101432.91;4842142;29;45300;-77
2022/10/28 09:14:41;;;;;;;;;6.75;6.75;;;;;19.15;65.45;101436.31;4837846;29;45427;-77
2022/10/28 09:17:15;;;;;;;;;10.25;7.50;;;;;19.16;65.53;101436.22;4839598;29;46594;-77
2022/10/28 09:19:50;;;;;;;;;9.25;6.00;;;;;19.12;65.70;101421.13;4843203;29;45494;-77
2022/10/28 09:22:24;;;;;;;;;8.25;7.00;;;;;19.21;65.42;101436.84;4851097;29;45421;-76
2022/10/28 09:24:58;;;;;;;;;10.50;7.75;;;;;19.17;65.37;101424.44;4835461;29;45491;-77
2022/10/28 09:27:56;;;;;;;;;9.00;8.00;;;;;19.28;65.83;101453.59;4833602;29;45361;-77
2022/10/28 09:30:48;;;;;;;;;8.50;7.00;;;;;19.29;65.27;101454.47;4843771;29;45995;-77
2022/10/28 09:33:46;;;;;;;;;10.25;8.50;;;;;19.36;65.59;101467.56;4825819;29;45354;-77
2022/10/28 09:36:22;;;;;;;;;7.75;6.25;;;;;19.39;65.51;101480.91;4840112;29;45289;-76
2022/10/28 09:38:52;;;;;;;;;7.75;5.75;;;;;19.41;65.64;101464.56;4830200;29;45351;-77
2022/10/28 09:41:32;;;;;;;;;7.00;7.00;;;;;19.48;65.51;101470.50;4831265;29;45419;-77
2022/10/28 09:44:17;;;;;;;;;8.50;8.25;;;;;19.51;65.25;101484.75;4830725;29;45246;-77
2022/10/28 09:46:51;;;;;;;;;10.50;8.75;;;;;19.53;65.48;101481.94;4843761;29;45307;-77
2022/10/28 09:49:22;;;;;;;;;11.50;9.00;;;;;19.54;65.60;101473.72;4838700;29;45486;-77
2022/10/28 09:52:04;;;;;;;;;9.50;7.50;;;;;19.60;65.67;101486.91;4840615;29;45494;-77
2022/10/28 09:54:36;;;;;;;;;15.25;7.50;;;;;19.63;65.57;101478.59;4840817;29;45288;-77
2022/10/28 09:57:03;;;;;;;;;10.00;9.00;;;;;19.65;65.19;101473.09;4848690;29;45960;-77
2022/10/28 09:59:28;;;;;;;;;6.25;6.25;;;;;19.65;65.20;101451.44;4851275;29;48256;-76
2022/10/28 10:01:54;;;;;;;;;11.75;8.75;;;;;19.72;64.88;101454.66;4843082;29;45427;-77
2022/10/28 10:04:24;;;;;;;;;10.50;8.00;;;;;19.77;64.63;101460.69;4842196;29;45215;-77
2022/10/28 10:06:57;;;;;;;;;5.75;5.00;;;;;19.73;64.77;101462.69;4842513;29;45358;-76
2022/10/28 10:09:27;;;;;;;;;8.00;8.00;;;;;19.80;64.91;101466.81;4843659;29;45538;-77
2022/10/28 10:11:58;;;;;;;;;7.75;5.75;;;;;19.87;65.08;101490.81;4840201;29;45644;-77
2022/10/28 10:14:48;;;;;;;;;9.00;7.00;;;;;19.91;65.09;101503.22;4846398;29;45456;-77
2022/10/28 10:17:18;;;;;;;;;6.75;6.75;;;;;19.94;65.31;101505.75;4843237;29;45529;-77
2022/10/28 10:20:01;;;;;;;;;7.00;6.50;;;;;19.94;65.50;101505.75;4845119;29;45478;-77
2022/10/28 10:22:33;;;;;;;;;6.25;2.50;;;;;19.98;64.48;101512.75;4843831;29;45271;-77
2022/10/28 10:24:58;;;;;;;;;7.00;7.00;;;;;20.02;65.43;101502.59;4834055;29;45456;-77
2022/10/28 10:27:26;;;;;;;;;9.00;8.00;;;;;20.00;65.29;101505.38;4840246;29;45525;-79
2022/10/28 10:29:53;;;;;;;;;8.25;7.75;;;;;20.03;64.93;101504.31;4844399;29;45657;-77
2022/10/28 10:32:28;;;;;;;;;9.25;8.00;;;;;20.10;64.74;101514.69;4837546;29;45619;-77
2022/10/28 10:35:00;;;;;;;;;6.75;6.75;;;;;20.12;64.81;101510.06;4833010;29;45442;-77
2022/10/28 10:37:28;;;;;;;;;8.50;7.75;;;;;20.14;64.45;101499.97;4834610;29;45390;-76
2022/10/28 10:40:15;;;;;;;;;7.00;7.00;;;;;20.15;64.71;101495.47;4829491;29;46143;-77
2022/10/28 10:42:40;;;;;;;;;10.75;7.75;;;;;20.19;65.40;101497.00;4840768;29;45636;-77
2022/10/28 10:45:15;;;;;;;;;8.25;8.25;;;;;20.23;64.96;101508.53;4839740;29;45263;-77
2022/10/28 10:47:41;;;;;;;;;12.00;9.50;;;;;20.22;64.69;101510.38;4846530;29;45255;-77
2022/10/28 10:50:33;;;;;;;;;8.25;7.50;;;;;20.27;64.81;101513.66;4841417;29;45473;-77
2022/10/28 10:53:00;;;;;;;;;6.25;6.25;;;;;20.25;64.77;101515.63;4843005;29;45327;-77
2022/10/28 10:55:36;;;;;;;;;10.75;8.00;;;;;20.28;64.51;101528.97;4844126;29;45356;-77
2022/10/28 10:58:04;;;;;;;;;7.00;2.75;;;;;20.36;64.63;101536.63;4840079;29;45258;-77
2022/10/28 11:00:35;;;;;;;;;8.00;7.00;;;;;20.36;64.27;101533.91;4851333;29;46159;-77
2022/10/28 11:03:03;;;;;;;;;8.00;7.50;;;;;20.43;64.96;101537.13;4828330;29;45394;-77
2022/10/28 11:05:28;;;;;;;;;10.25;6.75;;;;;20.47;64.99;101536.00;4829378;29;45348;-77
2022/10/28 11:07:57;;;;;;;;;7.00;6.25;;;;;20.49;64.69;101542.19;4833114;29;45444;-77
2022/10/28 11:10:28;;;;;;;;;7.50;6.75;;;;;20.54;64.96;101542.78;4840050;29;46369;-77
2022/10/28 11:12:57;;;;;;;;;12.25;7.25;;;;;20.58;65.10;101548.88;4845301;29;45281;-77
2022/10/28 11:15:30;;;;;;;;;7.00;6.00;;;;;20.60;64.78;101552.34;4829449;29;45686;-77
2022/10/28 11:18:09;;;;;;;;;11.00;7.75;;;;;20.64;64.65;101546.69;4835133;29;45325;-77
2022/10/28 11:20:57;;;;;;;;;9.25;7.00;;;;;20.67;64.55;101551.06;4847191;29;47678;-77
2022/10/28 11:23:34;;;;;;;;;8.75;6.50;;;;;20.70;64.91;101564.44;4832438;29;45415;-77
2022/10/28 11:26:06;;;;;;;;;7.75;6.75;;;;;20.67;64.53;101551.94;4829076;29;45308;-77
2022/10/28 11:28:50;;;;;;;;;8.00;6.25;;;;;20.79;64.75;101563.84;4829087;29;45562;-77
2022/10/28 11:31:52;;;;;;;;;6.25;6.25;;;;;20.82;64.00;101558.25;4828625;29;46045;-77
2022/10/28 11:34:36;;;;;;;;;12.75;9.25;;;;;20.83;64.63;101556.38;4834894;29;45286;-77
2022/10/28 11:37:16;;;;;;;;;9.00;7.00;;;;;20.87;64.45;101552.53;4833005;29;45337;-77